Time;durP1;ratioP1;P1;durP2;ratioP2;P2;SDS_P1;SDS_P2;PMS_P1;PMS_P2;Temp;Humidity;BMP_temperature;BMP_pressure;BME280_temperature;BME280_humidity;BME280_pressure;Samples;Min_cycle;Max_cycle;Signal;HPM_P1;HPM_P2
2023/02/13 00:01:05;;;;;;;147.70;68.20;;;;;;;0.53;100.00;100006.13;52519;1257;1016625;-80
2023/02/13 00:03:32;;;;;;;143.20;64.70;;;;;;;0.56;100.00;100002.78;52438;1251;1074556;-80
2023/02/13 00:05:58;;;;;;;137.60;62.50;;;;;;;0.56;100.00;99997.74;52504;1257;1015951;-79
2023/02/13 00:08:25;;;;;;;152.00;69.30;;;;;;;0.56;100.00;99992.44;52540;1251;1060703;-78
2023/02/13 00:10:52;;;;;;;157.10;68.00;;;;;;;0.55;100.00;99988.48;52490;1257;1018694;-80
2023/02/13 00:13:18;;;;;;;138.10;69.00;;;;;;;0.55;100.00;99985.11;52513;1257;1071399;-80
2023/02/13 00:15:45;;;;;;;125.50;60.30;;;;;;;0.54;100.00;99988.09;52518;1253;1016363;-78
2023/02/13 00:18:11;;;;;;;134.40;63.90;;;;;;;0.57;100.00;99981.91;52482;1255;1052107;-79
2023/02/13 00:20:38;;;;;;;118.00;60.30;;;;;;;0.60;100.00;99981.95;52542;1251;1015818;-78
2023/02/13 00:23:05;;;;;;;136.90;62.00;;;;;;;0.64;100.00;99979.20;52497;1251;1061217;-77
2023/02/13 00:25:31;;;;;;;117.70;55.60;;;;;;;0.66;100.00;99972.42;52480;1251;1016210;-79
2023/02/13 00:27:58;;;;;;;112.90;57.60;;;;;;;0.69;100.00;99973.53;52544;1251;1072678;-79
2023/02/13 00:30:25;;;;;;;120.90;62.90;;;;;;;0.72;100.00;99972.42;52538;1251;1016235;-80
2023/02/13 00:32:51;;;;;;;124.00;60.30;;;;;;;0.71;100.00;99972.53;52501;1251;1069646;-80
2023/02/13 00:35:18;;;;;;;139.50;66.40;;;;;;;0.71;100.00;99982.61;52524;1251;1016182;-80
2023/02/13 00:37:45;;;;;;;141.40;67.40;;;;;;;0.67;100.00;99987.56;52537;1256;1074516;-78
2023/02/13 00:40:11;;;;;;;138.90;66.40;;;;;;;0.65;100.00;99988.84;52450;1251;1016229;-80
2023/02/13 00:42:38;;;;;;;130.40;59.40;;;;;;;0.65;100.00;99988.84;52519;1256;1050608;-80
2023/02/13 00:45:05;;;;;;;134.90;63.80;;;;;;;0.59;100.00;99994.14;52482;1251;1015665;-79
2023/02/13 00:47:32;;;;;;;126.00;60.70;;;;;;;0.55;100.00;99989.51;52500;1251;1057741;-80
2023/02/13 00:49:58;;;;;;;116.00;59.10;;;;;;;0.53;100.00;99990.72;52521;1251;1015579;-80
2023/02/13 00:52:25;;;;;;;101.90;49.00;;;;;;;0.50;100.00;99990.52;52526;1251;1072499;-79
2023/02/13 00:54:51;;;;;;;104.40;50.20;;;;;;;0.54;100.00;99993.79;52501;1251;1018184;-79
2023/02/13 00:57:18;;;;;;;112.90;51.50;;;;;;;0.55;100.00;99990.28;52533;1251;1071488;-77
2023/02/13 00:59:44;;;;;;;133.50;60.80;;;;;;;0.52;100.00;99983.70;52528;1253;1016051;-77
2023/02/13 01:02:11;;;;;;;128.50;57.50;;;;;;;0.53;100.00;99975.55;52509;1257;1069448;-77
2023/02/13 01:04:38;;;;;;;134.60;66.50;;;;;;;0.53;100.00;99975.55;52434;1253;1015922;-77
2023/02/13 01:07:04;;;;;;;142.70;69.00;;;;;;;0.53;100.00;99972.69;52591;1253;1053213;-80
2023/02/13 01:09:31;;;;;;;130.90;65.80;;;;;;;0.56;100.00;99975.58;52485;1253;1015929;-81
2023/02/13 01:11:58;;;;;;;135.00;64.10;;;;;;;0.55;100.00;99977.57;52511;1253;1058189;-77
2023/02/13 01:14:24;;;;;;;114.30;54.90;;;;;;;0.57;100.00;99967.77;52520;1254;1016028;-80
2023/02/13 01:16:51;;;;;;;138.40;71.10;;;;;;;0.63;100.00;99965.27;52474;1254;1072799;-77
2023/02/13 01:19:17;;;;;;;133.40;76.40;;;;;;;0.66;100.00;99964.35;52517;1254;1016684;-77
2023/02/13 01:21:44;;;;;;;100.70;45.00;;;;;;;0.70;100.00;99959.98;52564;1254;1069477;-78
2023/02/13 01:24:11;;;;;;;110.10;52.00;;;;;;;0.75;100.00;99951.05;52474;1256;1016084;-79
2023/02/13 01:26:37;;;;;;;105.20;51.30;;;;;;;0.74;100.00;99953.27;52502;1254;1062973;-79
2023/02/13 01:29:04;;;;;;;115.80;62.70;;;;;;;0.75;100.00;99954.77;52493;1256;1016117;-78
2023/02/13 01:31:31;;;;;;;105.80;54.40;;;;;;;0.79;100.00;99949.02;52356;1254;1051050;-77
2023/02/13 01:33:58;;;;;;;94.70;48.30;;;;;;;0.78;100.00;99944.52;52517;1256;1016073;-77
2023/02/13 01:36:25;;;;;;;93.10;46.80;;;;;;;0.80;100.00;99941.95;52563;1256;1058710;-80
2023/02/13 01:38:53;;;;;;;75.90;34.80;;;;;;;0.83;100.00;99938.23;52474;1254;1016250;-79
2023/02/13 01:41:20;;;;;;;95.80;50.10;;;;;;;0.89;100.00;99931.76;52492;1254;1071984;-79
2023/02/13 01:43:50;;;;;;;92.10;41.90;;;;;;;0.94;100.00;99931.88;52548;1254;1016334;-80
2023/02/13 01:46:30;;;;;;;87.10;42.10;;;;;;;1.00;100.00;99930.91;52469;1254;1069471;-80
2023/02/13 01:49:02;;;;;;;98.20;44.60;;;;;;;1.01;100.00;99925.58;52524;1254;1070127;-80
2023/02/13 01:51:31;;;;;;;91.80;45.00;;;;;;;1.04;100.00;99930.80;52493;1253;1068942;-77
2023/02/13 01:54:18;;;;;;;73.00;39.20;;;;;;;1.04;100.00;99924.71;52551;1256;1015836;-77
2023/02/13 01:56:48;;;;;;;89.70;47.60;;;;;;;0.97;100.00;99921.09;52400;1254;1069528;-80
2023/02/13 01:59:19;;;;;;;58.50;26.50;;;;;;;0.89;100.00;99919.58;52532;1254;1018373;-80
2023/02/13 02:01:46;;;;;;;87.10;40.70;;;;;;;0.96;100.00;99913.72;52521;1256;1068759;-80
2023/02/13 02:04:19;;;;;;;89.40;43.40;;;;;;;1.00;100.00;99909.30;52447;1253;1015816;-80
2023/02/13 02:06:48;;;;;;;108.20;56.40;;;;;;;1.02;100.00;99911.96;52540;1256;1073880;-78
2023/02/13 02:09:18;;;;;;;85.60;41.90;;;;;;;1.01;100.00;99915.46;52517;1252;1016144;-80
2023/02/13 02:12:17;;;;;;;93.40;44.40;;;;;;;1.04;100.00;99915.52;52439;1254;1016006;-80
2023/02/13 02:14:43;;;;;;;89.70;41.10;;;;;;;1.04;100.00;99916.50;52491;1255;1071298;-77
2023/02/13 02:17:10;;;;;;;104.40;54.60;;;;;;;1.04;100.00;99915.80;52370;1258;1016119;-78
2023/02/13 02:19:38;;;;;;;86.20;45.20;;;;;;;1.06;100.00;99908.57;52438;1254;1053113;-77
2023/02/13 02:22:43;;;;;;;94.10;43.20;;;;;;;1.08;100.00;99906.09;52504;1254;1016128;-79
2023/02/13 02:25:31;;;;;;;90.30;44.10;;;;;;;1.07;100.00;99907.40;52483;1254;1062258;-80
2023/02/13 02:28:14;;;;;;;88.90;45.10;;;;;;;1.07;100.00;99899.66;52500;1254;1058216;-77
2023/02/13 02:31:00;;;;;;;81.90;42.30;;;;;;;1.03;100.00;99899.02;52495;1254;1060988;-77
2023/02/13 02:33:46;;;;;;;93.20;45.00;;;;;;;1.03;100.00;99898.31;52459;1253;1059068;-75
2023/02/13 02:36:38;;;;;;;99.80;45.90;;;;;;;1.02;100.00;99897.84;52519;1254;1058116;-80
2023/02/13 02:39:12;;;;;;;92.30;46.70;;;;;;;1.00;100.00;99891.17;52528;1254;1059589;-80
2023/02/13 02:41:55;;;;;;;90.10;44.50;;;;;;;0.96;100.00;99892.84;52545;1257;1061032;-80
2023/02/13 02:44:41;;;;;;;102.50;47.40;;;;;;;0.95;100.00;99891.16;52535;1254;1061477;-77
2023/02/13 02:50:20;;;;;;;108.70;52.10;;;;;;;0.85;100.00;99892.45;52489;1257;1058275;-77
2023/02/13 02:52:58;;;;;;;87.50;42.80;;;;;;;0.86;100.00;99894.17;52519;1257;1061985;-78
2023/02/13 02:55:28;;;;;;;94.60;42.60;;;;;;;0.84;100.00;99887.83;52527;1251;1061641;-77
2023/02/13 03:06:27;;;;;;;100.80;50.50;;;;;;;0.86;100.00;99892.20;52475;1251;1059437;-76
2023/02/13 03:14:29;;;;;;;91.90;43.60;;;;;;;0.79;100.00;99903.09;52527;1251;1057817;-76
2023/02/13 03:23:02;;;;;;;93.00;48.40;;;;;;;0.76;100.00;99895.31;52523;1251;1072526;-77
2023/02/13 03:25:43;;;;;;;90.10;43.60;;;;;;;0.75;100.00;99895.39;52551;1257;1075827;-79
2023/02/13 03:31:21;;;;;;;86.90;43.60;;;;;;;0.76;100.00;99898.52;52534;1253;1074683;-79
2023/02/13 03:34:03;;;;;;;89.70;43.20;;;;;;;0.78;100.00;99897.59;52499;1251;1073150;-77
2023/02/13 03:39:44;;;;;;;67.80;34.80;;;;;;;0.75;100.00;99897.12;52556;1256;1074820;-80
2023/02/13 03:42:36;;;;;;;83.10;41.80;;;;;;;0.76;100.00;99896.10;52517;1251;1073082;-79
2023/02/13 03:47:56;;;;;;;129.20;56.60;;;;;;;0.79;100.00;99892.48;52535;1257;1075228;-79
2023/02/13 03:50:24;;;;;;;133.30;59.70;;;;;;;0.81;100.00;99892.74;52535;1251;1018473;-79
2023/02/13 03:53:03;;;;;;;129.30;58.00;;;;;;;0.82;100.00;99889.20;52559;1251;1070898;-77
2023/02/13 04:01:29;;;;;;;102.00;50.20;;;;;;;0.84;100.00;99894.50;52430;1251;1069881;-79
2023/02/13 04:03:58;;;;;;;82.80;42.60;;;;;;;0.86;100.00;99894.00;52457;1256;1072369;-77
2023/02/13 04:06:33;;;;;;;85.20;43.80;;;;;;;0.86;100.00;99900.05;52553;1251;1016476;-80
2023/02/13 04:09:00;;;;;;;78.30;39.20;;;;;;;0.84;100.00;99897.70;52479;1256;1069149;-77
2023/02/13 04:11:32;;;;;;;80.40;40.50;;;;;;;0.85;100.00;99895.36;52492;1251;1016117;-79
2023/02/13 04:14:06;;;;;;;81.40;42.10;;;;;;;0.86;100.00;99894.13;52538;1251;1073425;-77
2023/02/13 04:16:36;;;;;;;77.10;41.50;;;;;;;0.90;100.00;99896.25;52507;1251;1062149;-77
2023/02/13 04:19:02;;;;;;;87.70;44.50;;;;;;;0.92;100.00;99891.08;52547;1257;1015529;-77
2023/02/13 04:21:33;;;;;;;94.10;46.00;;;;;;;0.94;100.00;99891.67;52433;1251;1016108;-79
2023/02/13 04:23:59;;;;;;;94.40;50.20;;;;;;;0.97;100.00;99895.03;52536;1256;1050832;-77
2023/02/13 04:26:31;;;;;;;93.50;49.20;;;;;;;1.01;100.00;99894.10;52525;1257;1018886;-79
2023/02/13 04:28:58;;;;;;;83.80;42.70;;;;;;;1.03;100.00;99895.24;52520;1251;1062645;-79
2023/02/13 04:31:25;;;;;;;95.50;49.90;;;;;;;1.06;100.00;99893.70;52574;1256;1016752;-77
2023/02/13 04:33:51;;;;;;;97.30;48.80;;;;;;;1.09;100.00;99892.11;52498;1257;1072819;-79
2023/02/13 04:36:18;;;;;;;99.70;47.40;;;;;;;1.11;100.00;99893.64;52541;1254;1016373;-79
2023/02/13 04:38:45;;;;;;;91.00;45.20;;;;;;;1.12;100.00;99898.69;52524;1251;1071680;-79
2023/02/13 04:41:11;;;;;;;99.60;54.50;;;;;;;1.15;100.00;99901.61;52550;1251;1018526;-77
2023/02/13 04:43:38;;;;;;;103.20;52.00;;;;;;;1.17;100.00;99900.33;52468;1254;1072940;-79
2023/02/13 04:46:04;;;;;;;86.80;47.90;;;;;;;1.18;100.00;99904.65;52523;1251;1016412;-77
2023/02/13 04:48:31;;;;;;;85.70;46.90;;;;;;;1.18;100.00;99902.98;52534;1257;1050916;-77
2023/02/13 04:50:58;;;;;;;85.00;42.10;;;;;;;1.16;100.00;99906.10;52454;1251;1016631;-79
2023/02/13 04:53:24;;;;;;;84.80;40.50;;;;;;;1.15;100.00;99903.05;52518;1254;1060624;-80
2023/02/13 04:55:51;;;;;;;88.40;44.00;;;;;;;1.13;100.00;99900.67;52568;1251;1016389;-81
2023/02/13 04:58:17;;;;;;;84.70;43.60;;;;;;;1.13;100.00;99898.16;52492;1253;1075149;-79
2023/02/13 05:00:44;;;;;;;77.50;43.00;;;;;;;1.15;100.00;99903.04;52522;1256;1015922;-79
2023/02/13 05:03:11;;;;;;;88.70;45.20;;;;;;;1.14;100.00;99900.04;52570;1251;1072017;-79
2023/02/13 05:05:38;;;;;;;80.10;41.20;;;;;;;1.13;100.00;99903.17;52499;1251;1017467;-79
2023/02/13 05:08:06;;;;;;;81.50;41.50;;;;;;;1.10;100.00;99906.67;52483;1256;1070675;-76
2023/02/13 05:10:33;;;;;;;82.90;44.60;;;;;;;1.10;100.00;99908.15;52504;1256;1018533;-79
2023/02/13 05:12:59;;;;;;;99.10;47.20;;;;;;;1.10;100.00;99906.15;52453;1252;1050141;-76
2023/02/13 05:15:26;;;;;;;94.50;45.80;;;;;;;1.11;100.00;99910.55;52474;1257;1016445;-78
2023/02/13 05:17:53;;;;;;;95.10;48.30;;;;;;;1.12;100.00;99912.08;52559;1256;1057926;-77
2023/02/13 05:20:19;;;;;;;94.20;50.50;;;;;;;1.15;100.00;99909.81;52484;1251;1016424;-80
2023/02/13 05:25:52;;;;;;;104.60;51.70;;;;;;;1.16;100.00;99911.31;52307;1262;1075184;-79
2023/02/13 05:31:09;;;;;;;86.30;46.20;;;;;;;1.10;100.00;99905.95;52509;1257;1070581;-79
2023/02/13 05:33:35;;;;;;;95.00;51.20;;;;;;;1.10;100.00;99906.41;52467;1257;1016374;-77
2023/02/13 05:36:02;;;;;;;95.00;53.10;;;;;;;1.08;100.00;99910.13;52485;1251;1072896;-79
2023/02/13 05:38:29;;;;;;;99.30;49.60;;;;;;;1.08;100.00;99909.33;52578;1257;1017197;-79
2023/02/13 05:41:00;;;;;;;79.50;45.60;;;;;;;1.08;100.00;99907.00;52451;1256;1050988;-76
2023/02/13 05:43:27;;;;;;;93.90;53.70;;;;;;;1.08;100.00;99905.16;52560;1257;1051257;-76
2023/02/13 05:46:04;;;;;;;91.00;50.80;;;;;;;1.09;100.00;99902.24;52435;1251;1016269;-76
2023/02/13 05:48:31;;;;;;;87.10;48.40;;;;;;;1.10;100.00;99904.28;52577;1256;1058506;-76
2023/02/13 05:50:58;;;;;;;77.10;41.10;;;;;;;1.10;100.00;99905.44;52489;1251;1016048;-79
2023/02/13 05:53:25;;;;;;;79.90;41.90;;;;;;;1.09;100.00;99908.22;52602;1257;1075488;-76
2023/02/13 05:55:51;;;;;;;83.00;42.20;;;;;;;1.08;100.00;99906.46;52720;1257;1016300;-79
2023/02/13 05:58:19;;;;;;;88.40;45.10;;;;;;;1.07;100.00;99911.58;52575;1251;1072308;-77
2023/02/13 06:00:46;;;;;;;87.80;48.00;;;;;;;1.06;100.00;99911.68;52855;1251;1016737;-79
2023/02/13 06:03:13;;;;;;;81.20;45.90;;;;;;;1.06;100.00;99907.34;52588;1257;1070740;-79
2023/02/13 06:05:39;;;;;;;101.40;51.00;;;;;;;1.07;100.00;99911.20;52727;1255;1017635;-77
2023/02/13 06:08:06;;;;;;;90.20;48.10;;;;;;;1.04;100.00;99908.52;52495;1251;1053844;-77
2023/02/13 06:10:33;;;;;;;113.50;56.40;;;;;;;1.03;100.00;99909.36;52526;1257;1015955;-77
2023/02/13 06:12:59;;;;;;;98.00;55.90;;;;;;;1.02;100.00;99904.15;52533;1251;1058044;-77
2023/02/13 06:15:26;;;;;;;102.10;57.30;;;;;;;1.03;100.00;99906.89;52482;1251;1016518;-77
2023/02/13 06:17:53;;;;;;;106.60;53.00;;;;;;;1.04;100.00;99909.30;52538;1257;1074559;-79
2023/02/13 06:20:19;;;;;;;99.80;49.70;;;;;;;1.00;100.00;99912.88;52548;1251;1017764;-77
2023/02/13 06:22:49;;;;;;;92.80;48.10;;;;;;;0.99;100.00;99912.77;52490;1251;1069584;-79
2023/02/13 06:25:16;;;;;;;94.40;48.90;;;;;;;1.01;100.00;99911.89;52501;1251;1016149;-79
2023/02/13 06:27:43;;;;;;;99.70;49.20;;;;;;;1.02;100.00;99912.80;52487;1256;1015985;-77
2023/02/13 06:30:10;;;;;;;105.90;50.40;;;;;;;1.05;100.00;99918.73;52507;1257;1073742;-79
2023/02/13 06:32:37;;;;;;;104.00;55.00;;;;;;;1.09;100.00;99919.51;52503;1257;1015825;-79
2023/02/13 06:35:04;;;;;;;106.20;58.30;;;;;;;1.13;100.00;99922.77;52523;1257;1054096;-79
2023/02/13 06:37:30;;;;;;;112.00;59.50;;;;;;;1.17;100.00;99926.09;52496;1251;1016080;-79
2023/02/13 06:39:57;;;;;;;112.80;56.70;;;;;;;1.20;100.00;99929.15;52530;1251;1057112;-77
2023/02/13 06:42:24;;;;;;;114.10;55.30;;;;;;;1.20;100.00;99931.06;52507;1251;1015860;-79
2023/02/13 06:44:50;;;;;;;114.80;56.60;;;;;;;1.20;100.00;99934.10;52495;1253;1075511;-77
2023/02/13 06:47:17;;;;;;;100.60;53.50;;;;;;;1.21;100.00;99938.11;52572;1251;1015893;-77
2023/02/13 06:49:44;;;;;;;100.00;50.20;;;;;;;1.21;100.00;99936.20;52525;1257;1069423;-79
2023/02/13 06:52:10;;;;;;;119.10;60.30;;;;;;;1.22;100.00;99932.09;52499;1257;1016500;-79
2023/02/13 06:54:37;;;;;;;145.10;69.50;;;;;;;1.24;100.00;99936.39;52512;1251;1070495;-80
2023/02/13 06:57:03;;;;;;;131.80;70.10;;;;;;;1.24;100.00;99935.98;52540;1255;1016288;-80
2023/02/13 06:59:30;;;;;;;173.50;92.70;;;;;;;1.26;100.00;99937.16;52457;1257;1050370;-79
2023/02/13 07:01:56;;;;;;;178.30;91.70;;;;;;;1.29;100.00;99936.30;52521;1255;1015586;-79
2023/02/13 07:04:23;;;;;;;219.80;117.50;;;;;;;1.30;100.00;99938.30;52580;1255;1058566;-77
2023/02/13 07:06:50;;;;;;;232.80;120.60;;;;;;;1.32;100.00;99931.67;52464;1252;1016022;-80
2023/02/13 07:09:16;;;;;;;274.90;136.70;;;;;;;1.32;100.00;99931.84;52954;1251;1072673;-79
2023/02/13 07:11:43;;;;;;;291.90;149.40;;;;;;;1.30;100.00;99930.52;53209;1251;1015518;-79
2023/02/13 07:14:10;;;;;;;249.90;124.10;;;;;;;1.31;100.00;99933.17;52734;1257;1072474;-79
2023/02/13 07:16:37;;;;;;;201.80;104.10;;;;;;;1.36;100.00;99933.39;52689;1257;1016145;-79
2023/02/13 07:19:03;;;;;;;204.60;100.40;;;;;;;1.35;100.00;99925.80;52628;1257;1072318;-80
2023/02/13 07:21:30;;;;;;;195.60;98.00;;;;;;;1.35;100.00;99925.64;52901;1257;1016203;-77
2023/02/13 07:23:57;;;;;;;199.90;97.50;;;;;;;1.31;100.00;99925.61;52988;1257;1051176;-77
2023/02/13 07:26:25;;;;;;;184.50;95.20;;;;;;;1.38;100.00;99927.45;52651;1257;1015920;-79
2023/02/13 07:28:52;;;;;;;150.80;80.10;;;;;;;1.48;100.00;99926.39;52562;1256;1058030;-77
2023/02/13 07:31:18;;;;;;;170.40;92.90;;;;;;;1.56;100.00;99929.09;52762;1257;1018504;-77
2023/02/13 07:33:47;;;;;;;227.90;120.70;;;;;;;1.63;100.00;99930.55;52810;1257;1076288;-77
2023/02/13 07:36:14;;;;;;;141.60;75.70;;;;;;;1.71;100.00;99926.03;52620;1256;1015792;-77
2023/02/13 07:38:41;;;;;;;109.10;59.80;;;;;;;1.78;100.00;99931.96;53121;1257;1016273;-77
2023/02/13 07:41:07;;;;;;;108.30;59.40;;;;;;;1.90;100.00;99932.16;54029;1251;1069340;-80
2023/02/13 07:43:34;;;;;;;106.40;60.70;;;;;;;2.01;100.00;99932.52;53795;1256;1015693;-77
2023/02/13 07:46:01;;;;;;;100.20;60.50;;;;;;;2.06;100.00;99937.31;54052;1251;1070679;-77
2023/02/13 07:48:28;;;;;;;103.00;59.90;;;;;;;2.12;100.00;99934.77;53956;1257;1015672;-77
2023/02/13 07:50:58;;;;;;;97.40;55.20;;;;;;;2.14;100.00;99932.35;54022;1254;1051823;-80
2023/02/13 07:53:25;;;;;;;82.30;44.70;;;;;;;2.19;100.00;99933.76;54067;1256;1050435;-80
2023/02/13 07:55:51;;;;;;;81.10;44.10;;;;;;;2.22;100.00;99936.70;54007;1252;1015880;-77
2023/02/13 07:58:18;;;;;;;78.30;45.90;;;;;;;2.23;100.00;99935.27;54024;1256;1059108;-77
2023/02/13 08:00:45;;;;;;;79.00;46.00;;;;;;;2.24;100.00;99936.20;53885;1251;1016732;-80
2023/02/13 08:03:11;;;;;;;83.60;46.70;;;;;;;2.28;100.00;99936.82;53182;1252;1073036;-77
2023/02/13 08:05:39;;;;;;;81.30;44.50;;;;;;;2.31;100.00;99937.51;52754;1251;1015986;-80
2023/02/13 08:08:06;;;;;;;83.60;44.60;;;;;;;2.32;100.00;99936.44;53188;1255;1070093;-79
2023/02/13 08:13:18;;;;;;;92.50;55.60;;;;;;;2.40;100.00;99937.36;53612;1251;1070160;-77
2023/02/13 08:15:46;;;;;;;86.60;51.10;;;;;;;2.48;100.00;99934.61;52599;1251;1016169;-80
2023/02/13 08:18:12;;;;;;;93.10;48.10;;;;;;;2.50;100.00;99935.81;52568;1257;1051631;-77
2023/02/13 08:20:39;;;;;;;102.40;55.90;;;;;;;2.55;100.00;99933.81;52555;1256;1018878;-79
2023/02/13 08:23:06;;;;;;;126.90;70.00;;;;;;;2.57;100.00;99927.71;52782;1253;1057810;-80
2023/02/13 08:25:33;;;;;;;117.60;65.80;;;;;;;2.59;100.00;99931.09;52575;1256;1016150;-79
2023/02/13 08:28:00;;;;;;;124.30;68.90;;;;;;;2.64;100.00;99928.86;52942;1251;1072241;-80
2023/02/13 08:30:27;;;;;;;119.20;67.30;;;;;;;2.73;100.00;99926.69;53124;1251;1017134;-79
2023/02/13 08:32:54;;;;;;;134.70;82.60;;;;;;;2.80;100.00;99926.11;53047;1251;1070082;-79
2023/02/13 08:35:25;;;;;;;142.60;83.80;;;;;;;2.83;100.00;99924.79;52560;1264;1015944;-76
2023/02/13 08:37:52;;;;;;;102.50;58.90;;;;;;;2.86;100.00;99923.71;52629;1252;1070509;-76
2023/02/13 08:40:19;;;;;;;146.10;85.60;;;;;;;2.96;100.00;99921.80;53101;1256;1016390;-80
2023/02/13 08:42:46;;;;;;;165.60;98.00;;;;;;;3.10;100.00;99917.01;53045;1256;1051205;-79
2023/02/13 08:45:12;;;;;;;197.60;111.00;;;;;;;3.24;100.00;99917.40;52606;1264;1016136;-79
2023/02/13 08:47:39;;;;;;;161.80;92.70;;;;;;;3.42;100.00;99917.13;52586;1257;1058648;-76
2023/02/13 08:50:06;;;;;;;152.20;87.60;;;;;;;3.58;100.00;99919.02;53106;1256;1016402;-79
2023/02/13 08:52:33;;;;;;;170.80;97.80;;;;;;;3.66;100.00;99920.27;52859;1255;1072131;-76
2023/02/13 08:55:02;;;;;;;231.80;129.30;;;;;;;3.76;100.00;99912.50;52686;1251;1016443;-79
2023/02/13 08:57:30;;;;;;;141.10;83.50;;;;;;;3.90;100.00;99911.59;52557;1257;1069548;-79
2023/02/13 08:59:56;;;;;;;127.90;73.70;;;;;;;4.02;100.00;99911.11;53150;1256;1015955;-76
2023/02/13 09:02:23;;;;;;;125.00;73.30;;;;;;;4.09;100.00;99915.19;52744;1251;1070964;-79
2023/02/13 09:04:50;;;;;;;114.50;65.30;;;;;;;4.14;100.00;99911.90;52784;1257;1016253;-78
2023/02/13 09:07:16;;;;;;;138.00;81.10;;;;;;;4.14;100.00;99912.40;52584;1264;1051155;-79
2023/02/13 09:09:43;;;;;;;165.90;97.60;;;;;;;4.13;100.00;99913.38;53337;1251;1015810;-79
2023/02/13 09:12:10;;;;;;;144.30;85.00;;;;;;;4.24;100.00;99914.84;52994;1257;1058611;-76
2023/02/13 09:14:38;;;;;;;130.60;81.30;;;;;;;4.29;100.00;99915.17;53029;1256;1016162;-76
2023/02/13 09:17:04;;;;;;;119.30;67.20;;;;;;;4.24;100.00;99915.02;52682;1251;1072472;-79
2023/02/13 09:19:31;;;;;;;141.00;85.40;;;;;;;4.30;100.00;99918.94;53039;1251;1016004;-79
2023/02/13 09:21:58;;;;;;;118.30;70.60;;;;;;;4.37;100.00;99921.85;52934;1251;1069510;-79
2023/02/13 09:24:25;;;;;;;111.50;64.10;;;;;;;4.43;100.00;99918.10;52851;1251;1016380;-77
2023/02/13 09:26:51;;;;;;;96.50;59.30;;;;;;;4.55;100.00;99913.82;52577;1257;1072879;-79
2023/02/13 09:29:18;;;;;;;113.80;63.20;;;;;;;4.66;100.00;99908.90;52568;1257;1016400;-79
2023/02/13 09:31:45;;;;;;;125.20;69.80;;;;;;;4.69;100.00;99904.70;52872;1251;1053970;-79
2023/02/13 09:34:12;;;;;;;149.90;83.20;;;;;;;4.75;100.00;99904.06;52933;1251;1015988;-76
2023/02/13 09:36:39;;;;;;;161.60;87.70;;;;;;;4.86;100.00;99907.89;52567;1251;1061109;-76
2023/02/13 09:39:05;;;;;;;133.50;77.70;;;;;;;4.97;100.00;99908.08;52904;1257;1016381;-79
2023/02/13 09:41:38;;;;;;;89.90;47.50;;;;;;;5.11;100.00;99914.29;53135;1251;1073211;-76
2023/02/13 09:44:32;;;;;;;77.50;42.10;;;;;;;5.22;100.00;99908.06;52904;1251;1072019;-76
2023/02/13 09:47:08;;;;;;;42.30;26.50;;;;;;;5.35;100.00;99904.93;52579;1257;1075668;-79
2023/02/13 09:49:36;;;;;;;20.90;11.60;;;;;;;5.50;100.00;99910.33;53195;1251;1073806;-76
2023/02/13 09:52:03;;;;;;;18.30;11.40;;;;;;;5.59;100.00;99914.67;52620;1254;1016412;-76
2023/02/13 09:54:31;;;;;;;34.30;16.80;;;;;;;5.65;100.00;99912.30;52712;1255;1072216;-79
2023/02/13 09:57:14;;;;;;;41.60;16.90;;;;;;;5.66;100.00;99911.93;52556;1251;1016611;-76
2023/02/13 10:00:02;;;;;;;21.20;12.40;;;;;;;5.60;100.00;99910.36;52546;1256;1073051;-76
2023/02/13 10:02:47;;;;;;;39.70;18.60;;;;;;;5.52;100.00;99910.63;52737;1257;1069552;-76
2023/02/13 10:05:45;;;;;;;70.20;31.90;;;;;;;5.44;100.00;99909.02;52544;1251;1072868;-79
2023/02/13 10:08:15;;;;;;;67.20;29.20;;;;;;;5.45;100.00;99899.17;52764;1251;1072014;-79
2023/02/13 10:11:11;;;;;;;26.10;13.50;;;;;;;5.45;100.00;99896.23;53399;1251;1015990;-79
2023/02/13 10:14:01;;;;;;;19.00;11.50;;;;;;;5.51;100.00;99896.60;52947;1251;1073156;-79
2023/02/13 10:16:40;;;;;;;16.20;9.00;;;;;;;5.61;100.00;99894.73;52617;1258;1070316;-80
2023/02/13 10:19:12;;;;;;;13.30;8.20;;;;;;;5.72;100.00;99891.42;52797;1257;1073891;-77
2023/02/13 10:21:49;;;;;;;15.20;8.70;;;;;;;5.75;100.00;99893.55;52831;1256;1070527;-77
2023/02/13 10:24:38;;;;;;;15.20;8.50;;;;;;;5.75;100.00;99886.42;53016;1256;1070999;-79
2023/02/13 10:27:31;;;;;;;16.80;9.60;;;;;;;5.79;100.00;99885.30;52625;1256;1071113;-80
2023/02/13 10:30:08;;;;;;;10.30;6.80;;;;;;;5.89;100.00;99883.98;53195;1251;1070833;-80
2023/02/13 10:32:41;;;;;;;16.30;8.70;;;;;;;6.00;100.00;99880.58;52900;1256;1069566;-80
2023/02/13 10:35:34;;;;;;;15.20;8.70;;;;;;;6.05;100.00;99876.57;52672;1261;1070664;-79
2023/02/13 10:38:01;;;;;;;19.00;11.30;;;;;;;6.21;100.00;99867.48;52594;1251;1073098;-79
2023/02/13 10:40:31;;;;;;;17.20;10.50;;;;;;;6.40;100.00;99863.98;53158;1251;1015890;-77
2023/02/13 10:43:04;;;;;;;11.60;6.70;;;;;;;6.46;100.00;99862.09;53069;1251;1050700;-79
2023/02/13 10:46:10;;;;;;;19.50;9.60;;;;;;;6.41;100.00;99860.30;52479;1251;1053556;-77
2023/02/13 10:49:05;;;;;;;14.40;10.50;;;;;;;6.43;100.00;99857.16;52531;1257;1051171;-78
2023/02/13 10:51:48;;;;;;;17.40;7.60;;;;;;;6.48;100.00;99852.34;52745;1257;1050997;-79
2023/02/13 10:54:34;;;;;;;13.00;6.60;;;;;;;6.53;100.00;99847.09;52653;1251;1054856;-79
2023/02/13 10:57:35;;;;;;;15.50;8.50;;;;;;;6.57;100.00;99844.25;52706;1257;1051739;-80
2023/02/13 11:00:05;;;;;;;21.60;8.00;;;;;;;6.65;100.00;99837.98;52622;1256;1052139;-79
2023/02/13 11:02:33;;;;;;;;;;;;;;;6.73;100.00;99834.04;53015;1251;1015872;-79
2023/02/13 11:05:04;;;;;;;16.00;8.50;;;;;;;6.71;100.00;99834.28;52778;1256;1016134;-78
2023/02/13 11:07:31;;;;;;;17.00;8.70;;;;;;;6.66;100.00;99832.60;52700;1257;1053982;-79
2023/02/13 11:10:00;;;;;;;17.90;9.80;;;;;;;6.70;100.00;99826.87;52955;1251;1016102;-78
2023/02/13 11:12:31;;;;;;;11.70;7.80;;;;;;;6.68;100.00;99825.59;52770;1251;1061660;-79
2023/02/13 11:14:59;;;;;;;17.90;11.10;;;;;;;6.65;100.00;99819.95;52540;1254;1058096;-79
2023/02/13 11:17:32;;;;;;;16.10;9.90;;;;;;;6.54;100.00;99825.15;52710;1251;1015722;-78
2023/02/13 11:20:00;;;;;;;12.90;5.90;;;;;;;6.51;100.00;99821.40;53121;1254;1057931;-79
2023/02/13 11:22:32;;;;;;;16.30;8.30;;;;;;;6.45;100.00;99822.27;52942;1252;1016088;-79
2023/02/13 11:25:22;;;;;;;19.90;9.60;;;;;;;6.32;100.00;99825.52;52855;1251;1073434;-79
2023/02/13 11:27:50;;;;;;;29.10;14.00;;;;;;;6.20;100.00;99823.27;52716;1251;1072477;-79
2023/02/13 11:30:22;;;;;;;33.20;17.30;;;;;;;6.22;100.00;99822.36;53180;1257;1015613;-76
2023/02/13 11:33:17;;;;;;;29.40;15.80;;;;;;;6.23;100.00;99821.83;53245;1251;1070120;-76
2023/02/13 11:35:44;;;;;;;23.60;14.80;;;;;;;6.20;100.00;99820.09;52579;1251;1072124;-77
2023/02/13 11:38:14;;;;;;;19.00;11.90;;;;;;;6.18;100.00;99816.29;52508;1251;1015951;-79
2023/02/13 11:40:43;;;;;;;23.20;13.90;;;;;;;6.18;100.00;99813.27;52713;1251;1071835;-79
2023/02/13 11:43:25;;;;;;;22.50;12.80;;;;;;;6.30;100.00;99813.80;52998;1251;1015823;-79
2023/02/13 11:46:14;;;;;;;18.60;8.40;;;;;;;6.39;100.00;99810.34;52615;1257;1070910;-79
2023/02/13 11:48:42;;;;;;;15.60;9.40;;;;;;;6.45;100.00;99811.05;52641;1257;1073127;-79
2023/02/13 11:51:08;;;;;;;19.30;9.90;;;;;;;6.49;100.00;99805.81;52913;1251;1016341;-80
2023/02/13 11:53:37;;;;;;;18.90;8.40;;;;;;;6.46;100.00;99804.16;53080;1251;1050863;-80
2023/02/13 11:56:14;;;;;;;17.80;11.80;;;;;;;6.46;100.00;99804.78;52693;1251;1017460;-80
2023/02/13 11:58:41;;;;;;;18.30;12.80;;;;;;;6.54;100.00;99802.54;52723;1251;1051916;-80
2023/02/13 12:01:20;;;;;;;12.20;7.70;;;;;;;6.57;100.00;99803.52;52768;1255;1018357;-80